createdAt,value
2017-06-13T00:00:11.401Z,5.48
2017-06-13T00:02:39.698Z,5.86
2017-06-13T00:05:07.962Z,5.38
2017-06-13T00:07:35.504Z,6.70
2017-06-13T00:10:02.995Z,5.24
2017-06-13T00:12:31.309Z,5.98
2017-06-13T00:14:59.586Z,5.36
2017-06-13T00:17:27.093Z,5.46
2017-06-13T00:19:54.633Z,5.58
2017-06-13T00:22:22.912Z,6.46
2017-06-13T00:24:50.464Z,5.12
2017-06-13T00:27:17.967Z,5.88
2017-06-13T00:29:47.131Z,6.64
2017-06-13T00:32:15.423Z,5.48
2017-06-13T00:34:43.699Z,6.74
2017-06-13T00:37:11.513Z,5.42
2017-06-13T00:39:39.013Z,6.56
2017-06-13T00:42:07.297Z,5.32
2017-06-13T00:44:34.827Z,7.10
2017-06-13T00:47:02.319Z,6.04
2017-06-13T00:49:29.873Z,5.22
2017-06-13T00:51:58.142Z,5.54
2017-06-13T00:54:25.650Z,6.34
2017-06-13T00:56:53.956Z,6.22
2017-06-13T00:59:21.462Z,6.18
2017-06-13T01:01:49.756Z,6.38
2017-06-13T01:04:18.032Z,5.54
2017-06-13T01:06:45.576Z,5.56
2017-06-13T01:09:13.089Z,5.40
2017-06-13T01:11:41.397Z,5.88
2017-06-13T01:14:08.893Z,5.32
2017-06-13T01:16:37.156Z,5.62
2017-06-13T01:19:05.459Z,5.72
2017-06-13T01:21:33.733Z,5.86
2017-06-13T01:24:02.054Z,4.92
2017-06-13T01:26:30.320Z,5.38
2017-06-13T01:28:58.584Z,5.38
2017-06-13T01:31:26.880Z,6.04
2017-06-13T01:33:54.416Z,5.64
2017-06-13T01:36:22.688Z,5.26
2017-06-13T01:38:51.022Z,6.06
2017-06-13T01:41:19.285Z,6.52
2017-06-13T01:43:46.783Z,6.48
2017-06-13T01:46:14.305Z,5.72
2017-06-13T01:48:41.832Z,5.30
2017-06-13T01:51:10.100Z,5.24
2017-06-13T01:53:38.391Z,4.80
2017-06-13T01:56:05.892Z,5.48
2017-06-13T01:58:33.415Z,5.42
2017-06-13T02:01:01.750Z,5.38
2017-06-13T02:03:29.250Z,6.36
2017-06-13T02:05:57.519Z,5.98
2017-06-13T02:08:25.067Z,4.90
2017-06-13T02:10:53.337Z,6.36
2017-06-13T02:13:21.601Z,6.28
2017-06-13T02:15:49.139Z,6.18
2017-06-13T02:18:16.645Z,5.40
2017-06-13T02:20:44.187Z,6.18
2017-06-13T02:23:12.450Z,4.90
2017-06-13T02:25:40.721Z,6.12
2017-06-13T02:28:08.265Z,6.50
2017-06-13T02:30:35.768Z,5.32
2017-06-13T02:33:04.025Z,5.96
2017-06-13T02:35:32.320Z,5.20
2017-06-13T02:38:00.587Z,5.68
2017-06-13T02:40:28.124Z,6.24
2017-06-13T02:42:56.428Z,6.74
2017-06-13T02:45:23.919Z,5.42
2017-06-13T02:47:51.423Z,5.58
2017-06-13T02:50:18.977Z,6.66
2017-06-13T02:52:47.236Z,6.44
2017-06-13T02:55:15.501Z,5.36
2017-06-13T02:57:43.019Z,6.24
2017-06-13T03:00:11.423Z,6.80
2017-06-13T03:02:39.727Z,7.24
2017-06-13T03:05:07.985Z,5.86
2017-06-13T03:07:35.489Z,7.94
2017-06-13T03:10:03.001Z,6.14
2017-06-13T03:12:31.262Z,5.96
2017-06-13T03:14:58.807Z,6.06
2017-06-13T03:17:27.064Z,6.50
2017-06-13T03:19:54.567Z,6.30
2017-06-13T03:22:22.869Z,6.50
2017-06-13T03:24:51.133Z,6.08
2017-06-13T03:27:18.631Z,6.72
2017-06-13T03:29:47.896Z,5.80
2017-06-13T03:32:16.164Z,6.06
2017-06-13T03:34:44.477Z,6.56
2017-06-13T03:37:12.736Z,7.24
2017-06-13T03:39:40.241Z,6.48
2017-06-13T03:42:08.538Z,6.42
2017-06-13T03:44:36.037Z,6.86
2017-06-13T03:47:03.569Z,5.80
2017-06-13T03:49:31.060Z,6.46
2017-06-13T03:51:59.366Z,6.52
2017-06-13T03:54:26.865Z,7.04
2017-06-13T03:56:55.131Z,6.20
2017-06-13T03:59:23.428Z,7.16
2017-06-13T04:01:51.701Z,6.46
2017-06-13T04:04:19.969Z,5.92
2017-06-13T04:06:48.273Z,6.72
2017-06-13T04:09:15.778Z,7.14
2017-06-13T04:11:44.093Z,6.26
2017-06-13T04:14:11.593Z,5.96
2017-06-13T04:16:39.853Z,5.98
2017-06-13T04:19:08.316Z,6.30
2017-06-13T04:21:36.580Z,6.76
2017-06-13T04:24:04.837Z,7.16
2017-06-13T04:26:32.376Z,6.34
2017-06-13T04:29:00.646Z,6.62
2017-06-13T04:31:28.909Z,6.76
2017-06-13T04:33:57.360Z,6.14
2017-06-13T04:36:24.912Z,6.82
2017-06-13T04:38:53.186Z,6.28
2017-06-13T04:41:21.460Z,6.44
2017-06-13T04:43:48.986Z,6.70
2017-06-13T04:46:17.293Z,8.82
2017-06-13T04:48:44.793Z,7.18
2017-06-13T04:51:13.060Z,7.42
2017-06-13T04:53:41.378Z,7.22
2017-06-13T04:56:08.880Z,6.66
2017-06-13T04:58:37.155Z,7.40
2017-06-13T05:01:05.452Z,7.18
2017-06-13T05:03:33.713Z,7.84
2017-06-13T05:06:01.244Z,10.36
2017-06-13T05:08:28.744Z,7.96
2017-06-13T05:10:56.313Z,7.34
2017-06-13T05:13:24.569Z,7.90
2017-06-13T05:15:52.829Z,7.14
2017-06-13T05:18:21.121Z,6.82
2017-06-13T05:20:48.619Z,6.86
2017-06-13T05:23:16.924Z,7.78
2017-06-13T05:25:45.191Z,8.08
2017-06-13T05:28:13.453Z,7.16
2017-06-13T05:30:40.981Z,7.24
2017-06-13T05:33:09.237Z,7.54
2017-06-13T05:35:36.785Z,7.70
2017-06-13T05:38:05.049Z,7.70
2017-06-13T05:40:32.535Z,10.92
2017-06-13T05:43:00.844Z,8.36
2017-06-13T05:45:29.105Z,9.94
2017-06-13T05:47:56.601Z,7.70
2017-06-13T05:50:24.152Z,8.50
2017-06-13T05:52:52.412Z,9.28
2017-06-13T05:55:20.677Z,8.78
2017-06-13T05:57:48.967Z,8.76
2017-06-13T06:00:16.463Z,9.76
2017-06-13T06:02:44.824Z,8.50
2017-06-13T06:05:13.087Z,9.66
2017-06-13T06:07:41.363Z,11.84
2017-06-13T06:10:08.888Z,9.44
2017-06-13T06:12:37.184Z,10.40
2017-06-13T06:15:04.693Z,8.48
2017-06-13T06:17:32.989Z,9.58
2017-06-13T06:20:00.492Z,11.34
2017-06-13T06:22:28.780Z,9.44
2017-06-13T06:24:57.105Z,9.76
2017-06-13T06:27:25.548Z,9.80
2017-06-13T06:29:53.043Z,10.60
2017-06-13T06:32:21.338Z,9.12
2017-06-13T06:34:48.909Z,11.16
2017-06-13T06:37:16.449Z,9.22
2017-06-13T06:39:44.875Z,10.88
2017-06-13T06:42:13.142Z,10.40
2017-06-13T06:44:41.460Z,9.88
2017-06-13T06:47:08.964Z,8.70
2017-06-13T06:49:36.506Z,10.28
2017-06-13T06:52:04.771Z,11.98
2017-06-13T06:54:33.036Z,8.42
2017-06-13T06:57:00.586Z,10.58
2017-06-13T06:59:28.077Z,9.54
2017-06-13T07:01:56.346Z,9.88
2017-06-13T07:04:24.647Z,8.58
2017-06-13T07:06:52.911Z,9.56
2017-06-13T07:09:20.412Z,8.80
2017-06-13T07:11:48.697Z,9.38
2017-06-13T07:14:16.973Z,8.46
2017-06-13T07:16:45.270Z,8.26
2017-06-13T07:19:13.531Z,7.72
2017-06-13T07:21:41.796Z,8.04
2017-06-13T07:24:09.323Z,7.00
2017-06-13T07:26:36.817Z,7.90
2017-06-13T07:29:04.355Z,8.40
2017-06-13T07:31:32.636Z,7.50
2017-06-13T07:34:00.924Z,6.82
2017-06-13T07:36:29.229Z,6.70
2017-06-13T07:38:57.496Z,7.64
2017-06-13T07:41:25.760Z,7.60
2017-06-13T07:43:54.052Z,6.74
2017-06-13T07:46:22.363Z,7.76
2017-06-13T07:48:49.873Z,7.30
2017-06-13T07:51:18.168Z,6.30
2017-06-13T07:53:45.711Z,6.38
2017-06-13T07:56:13.203Z,6.34
2017-06-13T07:58:41.457Z,5.90
2017-06-13T08:01:09.759Z,5.96
2017-06-13T08:03:38.028Z,7.68
2017-06-13T08:06:05.575Z,5.06
2017-06-13T08:08:33.831Z,5.32
2017-06-13T08:11:02.091Z,4.70
2017-06-13T08:13:30.382Z,5.36
2017-06-13T08:15:58.634Z,4.38
2017-06-13T08:18:26.889Z,5.58
2017-06-13T08:20:55.181Z,4.86
2017-06-13T08:23:23.448Z,4.50
2017-06-13T08:25:51.774Z,5.30
2017-06-13T08:28:19.270Z,5.96
2017-06-13T08:30:47.524Z,5.60
2017-06-13T08:33:15.812Z,4.60
2017-06-13T08:35:43.307Z,4.66
2017-06-13T08:38:10.810Z,5.44
2017-06-13T08:40:39.103Z,4.28
2017-06-13T08:43:07.361Z,3.96
2017-06-13T08:45:35.669Z,4.80
2017-06-13T08:48:03.151Z,4.60
2017-06-13T08:50:30.643Z,4.70
2017-06-13T08:52:58.931Z,4.30
2017-06-13T08:55:27.193Z,4.04
2017-06-13T08:57:55.492Z,4.56
2017-06-13T09:00:23.755Z,4.40
2017-06-13T09:02:52.017Z,4.12
2017-06-13T09:05:19.550Z,4.30
2017-06-13T09:07:47.821Z,5.00
2017-06-13T09:10:15.347Z,4.66
2017-06-13T09:12:43.624Z,3.94
2017-06-13T09:15:11.921Z,4.04
2017-06-13T09:17:39.419Z,4.10
2017-06-13T09:20:07.727Z,5.00
2017-06-13T09:22:35.997Z,4.58
2017-06-13T09:25:04.257Z,3.68
2017-06-13T09:27:31.780Z,4.00
2017-06-13T09:30:00.085Z,4.20
2017-06-13T09:32:28.351Z,4.58
2017-06-13T09:34:56.620Z,3.48
2017-06-13T09:37:24.165Z,4.62
2017-06-13T09:39:52.428Z,4.64
2017-06-13T09:42:20.690Z,4.30
2017-06-13T09:44:48.995Z,4.00
2017-06-13T09:47:16.496Z,4.80
2017-06-13T09:49:44.758Z,4.82
2017-06-13T09:52:13.044Z,3.62
2017-06-13T09:54:40.536Z,3.36
2017-06-13T09:57:08.072Z,3.68
2017-06-13T09:59:36.339Z,4.10
2017-06-13T10:02:04.604Z,3.66
2017-06-13T10:04:32.887Z,3.32
2017-06-13T10:07:01.152Z,4.40
2017-06-13T10:09:28.675Z,4.12
2017-06-13T10:11:56.997Z,3.76
2017-06-13T10:14:24.488Z,4.72
2017-06-13T10:16:51.990Z,4.00
2017-06-13T10:19:20.297Z,4.64
2017-06-13T10:21:48.552Z,4.86
2017-06-13T10:24:16.080Z,5.20
2017-06-13T10:26:43.583Z,4.88
2017-06-13T10:29:14.063Z,4.90
2017-06-13T10:31:42.463Z,4.56
2017-06-13T10:34:09.957Z,4.16
2017-06-13T10:36:38.494Z,4.02
2017-06-13T10:39:06.022Z,4.30
2017-06-13T10:41:34.348Z,3.82
2017-06-13T10:44:01.860Z,4.72
2017-06-13T10:46:30.131Z,4.86
2017-06-13T10:48:57.665Z,4.28
2017-06-13T10:51:25.922Z,3.90
2017-06-13T10:53:54.233Z,4.16
2017-06-13T10:56:22.500Z,4.68
2017-06-13T10:58:50.005Z,4.28
2017-06-13T11:01:18.313Z,4.86
2017-06-13T11:03:45.820Z,3.88
2017-06-13T11:06:13.332Z,4.60
2017-06-13T11:08:40.894Z,4.44
2017-06-13T11:11:09.169Z,4.56
2017-06-13T11:13:37.448Z,4.28
2017-06-13T11:16:04.984Z,3.78
2017-06-13T11:18:32.498Z,4.60
2017-06-13T11:21:00.768Z,4.24
2017-06-13T11:23:29.077Z,4.04
2017-06-13T11:25:56.571Z,5.16
2017-06-13T11:28:24.079Z,4.20
2017-06-13T11:30:51.619Z,4.96
2017-06-13T11:33:19.879Z,4.70
2017-06-13T11:35:48.248Z,4.34
2017-06-13T11:38:15.757Z,4.80
2017-06-13T11:40:43.259Z,5.04
2017-06-13T11:43:11.567Z,4.88
2017-06-13T11:45:39.064Z,4.82
2017-06-13T11:48:07.328Z,4.84
2017-06-13T11:50:35.631Z,4.92
2017-06-13T11:53:03.904Z,5.22
2017-06-13T11:55:31.462Z,5.00
2017-06-13T11:57:59.732Z,4.82
2017-06-13T12:00:27.237Z,4.94
2017-06-13T12:02:55.537Z,4.82
2017-06-13T12:05:23.795Z,4.80
2017-06-13T12:07:51.297Z,4.70
2017-06-13T12:10:19.590Z,5.96
2017-06-13T12:12:48.120Z,5.24
2017-06-13T12:15:15.669Z,5.44
2017-06-13T12:17:43.170Z,5.26
2017-06-13T12:20:11.433Z,5.96
2017-06-13T12:22:39.749Z,4.90
2017-06-13T12:25:07.243Z,6.64
2017-06-13T12:27:35.584Z,6.78
2017-06-13T12:30:03.845Z,6.82
2017-06-13T12:32:32.129Z,6.36
2017-06-13T12:35:00.437Z,6.22
2017-06-13T12:37:27.936Z,6.08
2017-06-13T12:39:55.436Z,6.12
2017-06-13T12:42:23.744Z,5.92
2017-06-13T12:44:51.236Z,6.66
2017-06-13T12:47:19.505Z,7.00
2017-06-13T12:49:47.804Z,6.80
2017-06-13T12:52:16.069Z,6.54
2017-06-13T12:54:43.617Z,6.52
2017-06-13T12:57:11.111Z,6.52
2017-06-13T12:59:39.369Z,6.42
2017-06-13T13:02:08.590Z,7.46
2017-06-13T13:04:36.107Z,6.92
2017-06-13T13:07:04.383Z,6.88
2017-06-13T13:09:31.948Z,7.58
2017-06-13T13:12:00.276Z,8.62
2017-06-13T13:14:27.823Z,8.34
2017-06-13T13:16:56.090Z,7.66
2017-06-13T13:19:24.373Z,8.78
2017-06-13T13:21:52.675Z,7.22
2017-06-13T13:24:20.164Z,6.82
2017-06-13T13:26:48.470Z,7.04
2017-06-13T13:29:16.779Z,7.00
2017-06-13T13:31:45.046Z,8.50
2017-06-13T13:34:12.546Z,6.64
2017-06-13T13:36:40.843Z,8.72
2017-06-13T13:39:09.114Z,8.08
2017-06-13T13:41:37.421Z,8.04
2017-06-13T13:44:05.689Z,9.46
2017-06-13T13:46:33.179Z,8.88
2017-06-13T13:49:00.760Z,7.94
2017-06-13T13:51:29.027Z,6.88
2017-06-13T13:53:57.297Z,7.04
2017-06-13T13:56:25.616Z,7.14
2017-06-13T13:58:53.875Z,6.92
2017-06-13T14:01:22.173Z,8.00
2017-06-13T14:03:50.446Z,7.80
2017-06-13T14:06:17.956Z,8.46
2017-06-13T14:08:45.491Z,8.30
2017-06-13T14:11:13.754Z,8.42
2017-06-13T14:13:41.253Z,8.30
2017-06-13T14:16:08.799Z,7.60
2017-06-13T14:18:37.059Z,6.98
2017-06-13T14:21:06.223Z,7.34
2017-06-13T14:23:34.529Z,8.08
2017-06-13T14:26:02.065Z,8.42
2017-06-13T14:28:29.599Z,7.82
2017-06-13T14:30:57.156Z,8.26
2017-06-13T14:33:25.418Z,8.66
2017-06-13T14:35:53.686Z,7.92
2017-06-13T14:38:21.265Z,8.38
2017-06-13T14:40:48.777Z,8.24
2017-06-13T14:43:17.044Z,9.42
2017-06-13T14:45:45.361Z,8.14
2017-06-13T14:48:13.627Z,8.84
2017-06-13T14:50:41.899Z,8.06
2017-06-13T14:53:10.203Z,7.64
2017-06-13T14:55:37.711Z,8.16
2017-06-13T14:58:05.212Z,8.22
2017-06-13T15:00:33.525Z,7.92
2017-06-13T15:03:01.795Z,6.70
2017-06-13T15:05:29.350Z,5.90
2017-06-13T15:07:57.632Z,6.40
2017-06-13T15:10:25.146Z,7.24
2017-06-13T15:12:53.466Z,7.42
2017-06-13T15:15:20.980Z,7.52
2017-06-13T15:17:48.484Z,7.62
2017-06-13T15:20:16.804Z,8.54
2017-06-13T15:22:45.070Z,8.62
2017-06-13T15:25:12.584Z,7.70
2017-06-13T15:27:40.895Z,8.62
2017-06-13T15:30:09.214Z,9.10
2017-06-13T15:32:37.497Z,10.48
2017-06-13T15:35:05.035Z,8.72
2017-06-13T15:37:33.321Z,8.64
2017-06-13T15:40:00.871Z,8.70
2017-06-13T15:42:29.135Z,8.72
2017-06-13T15:44:56.637Z,9.38
2017-06-13T15:47:24.216Z,9.68
2017-06-13T15:49:51.767Z,9.26
2017-06-13T15:52:20.040Z,10.02
2017-06-13T15:54:48.337Z,9.20
2017-06-13T15:57:16.641Z,8.50
2017-06-13T15:59:44.206Z,8.66
2017-06-13T16:02:12.492Z,8.72
2017-06-13T16:04:40.018Z,8.96
2017-06-13T16:07:07.540Z,8.00
2017-06-13T16:09:35.856Z,8.88
2017-06-13T16:12:04.168Z,8.78
2017-06-13T16:14:31.663Z,8.26
2017-06-13T16:16:59.220Z,8.66
2017-06-13T16:19:26.723Z,8.16
2017-06-13T16:21:55.046Z,7.68
2017-06-13T16:24:23.319Z,7.68
2017-06-13T16:26:51.606Z,8.46
2017-06-13T16:29:19.140Z,8.18
2017-06-13T16:31:47.455Z,8.10
2017-06-13T16:34:15.782Z,7.50
2017-06-13T16:36:44.047Z,7.40
2017-06-13T16:39:11.598Z,7.04
2017-06-13T16:41:39.873Z,8.12
2017-06-13T16:44:07.396Z,11.12
2017-06-13T16:46:37.614Z,7.30
2017-06-13T16:49:05.882Z,7.78
2017-06-13T16:51:34.150Z,8.10
2017-06-13T16:54:01.686Z,7.66
2017-06-13T16:56:29.949Z,8.12
2017-06-13T16:58:57.507Z,7.24
2017-06-13T17:01:25.778Z,7.06
2017-06-13T17:03:54.052Z,5.90
2017-06-13T17:06:21.580Z,4.60
2017-06-13T17:08:49.084Z,4.28
2017-06-13T17:11:17.455Z,4.58
2017-06-13T17:13:45.721Z,4.48
2017-06-13T17:16:13.984Z,5.46
2017-06-13T17:18:41.523Z,4.22
2017-06-13T17:21:09.793Z,4.12
2017-06-13T17:23:38.061Z,4.16
2017-06-13T17:26:05.616Z,4.20
2017-06-13T17:28:33.929Z,4.40
2017-06-13T17:31:02.220Z,3.98
2017-06-13T17:33:29.724Z,3.92
2017-06-13T17:35:58.053Z,3.90
2017-06-13T17:38:25.564Z,3.70
2017-06-13T17:40:53.830Z,4.14
2017-06-13T17:43:22.172Z,3.30
2017-06-13T17:45:50.437Z,4.04
2017-06-13T17:48:17.927Z,4.28
2017-06-13T17:50:45.487Z,4.10
2017-06-13T17:53:13.751Z,4.04
2017-06-13T17:55:41.244Z,4.12
2017-06-13T17:58:09.523Z,4.70
2017-06-13T18:00:37.789Z,3.58
2017-06-13T18:03:06.105Z,3.76
2017-06-13T18:05:33.611Z,5.52
2017-06-13T18:08:01.126Z,4.08
2017-06-13T18:10:28.661Z,3.92
2017-06-13T18:12:56.925Z,3.60
2017-06-13T18:15:25.244Z,3.90
2017-06-13T18:17:52.748Z,3.80
2017-06-13T18:20:20.267Z,4.62
2017-06-13T18:22:48.644Z,3.84
2017-06-13T18:25:16.174Z,5.38
2017-06-13T18:27:43.690Z,3.82
2017-06-13T18:30:12.008Z,4.14
2017-06-13T18:32:40.277Z,3.94
2017-06-13T18:35:07.821Z,4.86
2017-06-13T18:37:36.132Z,5.04
2017-06-13T18:40:04.395Z,4.46
2017-06-13T18:42:32.716Z,4.40
2017-06-13T18:45:01.010Z,4.32
2017-06-13T18:47:29.294Z,4.80
2017-06-13T18:49:57.608Z,4.00
2017-06-13T18:52:25.874Z,4.40
2017-06-13T18:54:53.370Z,4.54
2017-06-13T18:57:21.687Z,4.78
2017-06-13T18:59:50.005Z,4.78
2017-06-13T19:02:18.305Z,5.10
2017-06-13T19:04:45.822Z,4.88
2017-06-13T19:07:14.124Z,4.00
2017-06-13T19:09:41.625Z,4.02
2017-06-13T19:12:09.941Z,3.72
2017-06-13T19:14:38.217Z,3.78
2017-06-13T19:17:06.486Z,4.80
2017-06-13T19:19:34.797Z,4.00
2017-06-13T19:22:03.081Z,3.58
2017-06-13T19:24:31.400Z,3.64
2017-06-13T19:27:00.237Z,3.74
2017-06-13T19:29:28.499Z,3.58
2017-06-13T19:31:56.807Z,3.52
2017-06-13T19:34:25.094Z,3.68
2017-06-13T19:36:52.631Z,3.20
2017-06-13T19:39:20.129Z,3.36
2017-06-13T19:41:48.456Z,3.58
2017-06-13T19:44:15.958Z,3.52
2017-06-13T19:46:43.463Z,3.78
2017-06-13T19:49:11.017Z,3.24
2017-06-13T19:51:39.295Z,3.44
2017-06-13T19:54:07.579Z,3.38
2017-06-13T19:56:35.137Z,3.84
2017-06-13T19:59:02.650Z,3.46
2017-06-13T20:01:30.910Z,3.38
2017-06-13T20:03:58.723Z,3.30
2017-06-13T20:06:26.232Z,3.24
2017-06-13T20:08:53.727Z,3.88
2017-06-13T20:11:22.040Z,4.56
2017-06-13T20:13:50.312Z,3.70
2017-06-13T20:16:18.648Z,3.52
2017-06-13T20:18:46.152Z,3.72
2017-06-13T20:21:14.455Z,3.58
2017-06-13T20:23:48.452Z,3.30
2017-06-13T20:26:16.742Z,3.78
2017-06-13T20:28:45.013Z,3.32
2017-06-13T20:31:13.315Z,4.16
2017-06-13T20:33:56.173Z,4.08
2017-06-13T20:36:24.483Z,3.62
2017-06-13T20:38:51.991Z,4.24
2017-06-13T20:41:20.265Z,3.88
2017-06-13T20:43:48.577Z,3.82
2017-06-13T20:46:16.846Z,4.36
2017-06-13T20:48:44.412Z,4.12
2017-06-13T20:51:12.676Z,4.74
2017-06-13T20:53:40.187Z,3.86
2017-06-13T20:56:07.729Z,3.74
2017-06-13T20:58:35.249Z,4.00
2017-06-13T21:01:03.507Z,4.32
2017-06-13T21:03:31.062Z,4.60
2017-06-13T21:05:58.564Z,3.98
2017-06-13T21:08:26.069Z,4.52
2017-06-13T21:10:53.628Z,4.36
2017-06-13T21:13:21.896Z,4.38
2017-06-13T21:15:50.165Z,4.06
2017-06-13T21:18:18.471Z,6.22
2017-06-13T21:20:45.968Z,5.22
2017-06-13T21:23:14.261Z,4.40
2017-06-13T21:25:41.755Z,4.66
2017-06-13T21:28:10.052Z,4.98
2017-06-13T21:30:37.596Z,4.78
2017-06-13T21:33:05.853Z,5.82
2017-06-13T21:35:33.345Z,5.34
2017-06-13T21:38:01.647Z,4.74
2017-06-13T21:40:29.172Z,4.82
2017-06-13T21:42:57.439Z,4.96
2017-06-13T21:45:24.960Z,5.16
2017-06-13T21:47:52.455Z,5.20
2017-06-13T21:50:20.017Z,4.94
2017-06-13T21:52:48.283Z,5.26
2017-06-13T21:55:16.561Z,5.24
2017-06-13T21:57:44.091Z,5.24
2017-06-13T22:00:11.588Z,4.82
2017-06-13T22:02:39.884Z,5.32
2017-06-13T22:05:07.377Z,5.84
2017-06-13T22:07:35.676Z,5.12
2017-06-13T22:10:03.177Z,5.46
2017-06-13T22:12:31.445Z,5.28
2017-06-13T22:14:59.739Z,5.88
2017-06-13T22:17:28.014Z,4.72
2017-06-13T22:19:56.480Z,5.12
2017-06-13T22:22:24.745Z,5.10
2017-06-13T22:24:52.279Z,5.38
2017-06-13T22:27:19.816Z,4.50
2017-06-13T22:29:48.080Z,5.10
2017-06-13T22:32:16.334Z,4.86
2017-06-13T22:34:43.857Z,4.88
2017-06-13T22:37:11.352Z,5.54
2017-06-13T22:39:38.877Z,4.70
2017-06-13T22:42:07.147Z,5.02
2017-06-13T22:44:34.684Z,6.72
2017-06-13T22:47:02.955Z,5.60
2017-06-13T22:49:30.448Z,4.98
2017-06-13T22:51:58.753Z,5.88
2017-06-13T22:54:27.016Z,5.12
2017-06-13T22:56:54.563Z,5.18
2017-06-13T22:59:22.058Z,5.38
2017-06-13T23:01:50.323Z,5.68
2017-06-13T23:04:18.611Z,5.98
2017-06-13T23:06:46.107Z,5.62
2017-06-13T23:09:14.401Z,5.56
2017-06-13T23:11:42.668Z,6.20
2017-06-13T23:14:10.196Z,5.48
2017-06-13T23:16:38.491Z,5.60
2017-06-13T23:19:05.989Z,5.66
2017-06-13T23:21:34.296Z,5.60
2017-06-13T23:24:01.791Z,5.80
2017-06-13T23:26:30.048Z,5.56
2017-06-13T23:28:58.347Z,5.88
2017-06-13T23:31:26.604Z,5.66
2017-06-13T23:33:54.921Z,5.72
2017-06-13T23:36:23.180Z,6.26
2017-06-13T23:38:50.677Z,6.56
2017-06-13T23:41:18.976Z,5.30
2017-06-13T23:43:47.243Z,5.98
2017-06-13T23:46:14.780Z,6.22
2017-06-13T23:48:42.280Z,5.62
2017-06-13T23:51:10.539Z,6.32
2017-06-13T23:53:38.827Z,6.48
2017-06-13T23:56:06.316Z,5.92
2017-06-13T23:58:34.623Z,6.24
